Time;durP1;ratioP1;P1;durP2;ratioP2;P2;SDS_P1;SDS_P2;PMS_P1;PMS_P2;Temp;Humidity;BMP_temperature;BMP_pressure;BME280_temperature;BME280_humidity;BME280_pressure;Samples;Min_cycle;Max_cycle;Signal;HPM_P1;HPM_P2
2022/02/26 00:02:06;;;;;;;31.57;18.57;;;;;;;15.21;35.84;99835.63;1770987;79;21495;-57
2022/02/26 00:04:33;;;;;;;33.00;18.00;;;;;;;15.21;35.84;99844.05;1779300;79;21545;-57
2022/02/26 00:07:01;;;;;;;28.10;18.98;;;;;;;15.15;35.86;99840.81;1766288;79;21463;-57
2022/02/26 00:09:28;;;;;;;26.80;16.85;;;;;;;15.19;35.95;99841.01;1783377;79;21481;-57
2022/02/26 00:11:55;;;;;;;29.35;17.32;;;;;;;15.27;36.06;99840.55;1773896;79;21815;-57
2022/02/26 00:14:22;;;;;;;28.65;18.25;;;;;;;15.36;36.03;99843.14;1778660;79;20923;-57
2022/02/26 00:16:49;;;;;;;28.02;18.00;;;;;;;15.38;35.97;99846.55;1771174;79;21439;-57
2022/02/26 00:19:15;;;;;;;30.75;19.00;;;;;;;15.34;36.01;99847.20;1778638;79;21519;-55
2022/02/26 00:21:42;;;;;;;25.12;16.77;;;;;;;15.29;36.05;99848.41;1765323;79;20990;-55
2022/02/26 00:24:08;;;;;;;27.80;17.70;;;;;;;15.21;36.23;99857.30;1791050;78;21562;-56
2022/02/26 00:26:35;;;;;;;26.87;16.82;;;;;;;15.24;36.09;99857.97;1782223;79;21622;-55
2022/02/26 00:29:02;;;;;;;28.73;16.32;;;;;;;15.21;36.30;99848.03;1771592;79;21424;-55
2022/02/26 00:31:29;;;;;;;23.43;16.30;;;;;;;15.31;36.44;99859.77;1786230;79;21558;-55
2022/02/26 00:33:56;;;;;;;27.82;16.97;;;;;;;15.36;36.62;99851.09;1777105;79;21499;-56
2022/02/26 00:36:22;;;;;;;25.65;16.77;;;;;;;15.28;36.63;99858.16;1781096;79;21444;-55
2022/02/26 00:38:50;;;;;;;28.50;16.82;;;;;;;15.26;36.70;99863.19;1783918;79;21030;-57
2022/02/26 00:41:16;;;;;;;26.48;15.78;;;;;;;15.26;36.70;99863.19;1794031;79;21617;-57
2022/02/26 00:43:43;;;;;;;24.18;15.65;;;;;;;15.25;36.77;99859.66;1788706;78;21519;-57
2022/02/26 00:46:12;;;;;;;24.45;15.05;;;;;;;15.28;36.95;99866.11;1784319;78;21060;-57
2022/02/26 00:51:17;;;;;;;24.43;16.05;;;;;;;15.43;36.98;99875.44;1740078;80;21667;-57
2022/02/26 00:53:45;;;;;;;23.73;16.10;;;;;;;15.47;36.88;99870.33;1790216;79;21442;-58
2022/02/26 00:56:11;;;;;;;26.43;16.87;;;;;;;15.45;36.89;99874.88;1784242;78;21452;-58
2022/02/26 00:58:38;;;;;;;25.82;16.05;;;;;;;15.38;36.98;99878.34;1780339;79;21479;-57
2022/02/26 01:01:05;;;;;;;26.70;15.30;;;;;;;15.44;36.81;99881.09;1785061;79;21740;-57
2022/02/26 01:03:31;;;;;;;29.92;16.12;;;;;;;15.47;36.89;99887.07;1790044;79;21499;-57
2022/02/26 01:05:58;;;;;;;23.83;15.68;;;;;;;15.56;37.01;99883.03;1785092;79;21422;-55
2022/02/26 01:08:25;;;;;;;28.80;17.07;;;;;;;15.58;36.88;99887.29;1779354;78;21522;-55
2022/02/26 01:10:51;;;;;;;25.62;16.87;;;;;;;15.60;36.80;99888.53;1796194;79;21629;-55
2022/02/26 01:13:18;;;;;;;24.03;15.67;;;;;;;15.63;36.67;99888.32;1788684;79;21757;-55
2022/02/26 01:15:45;;;;;;;25.08;16.90;;;;;;;15.65;36.59;99892.21;1773815;79;21780;-58
2022/02/26 01:18:11;;;;;;;21.73;15.50;;;;;;;15.62;36.50;99897.72;1784322;79;21462;-58
2022/02/26 01:20:38;;;;;;;24.12;14.90;;;;;;;15.58;36.68;99902.34;1791111;78;21522;-58
2022/02/26 01:23:05;;;;;;;23.10;14.15;;;;;;;15.67;36.74;99904.90;1788477;79;21552;-58
2022/02/26 01:25:32;;;;;;;22.67;13.68;;;;;;;15.69;36.66;99909.19;1789519;79;21773;-58
2022/02/26 01:27:58;;;;;;;15.73;12.23;;;;;;;15.68;36.60;99907.94;1798778;78;21407;-58
2022/02/26 01:30:26;;;;;;;19.00;11.33;;;;;;;15.65;36.67;99910.77;1787501;79;21541;-58
2022/02/26 01:32:54;;;;;;;18.17;12.10;;;;;;;15.64;36.63;99918.35;1787855;79;21530;-58
2022/02/26 01:35:21;;;;;;;16.95;10.98;;;;;;;15.64;36.74;99922.33;1792679;79;21411;-58
2022/02/26 01:37:48;;;;;;;15.40;10.85;;;;;;;15.72;36.72;99924.88;1789408;79;21964;-58
2022/02/26 01:40:15;;;;;;;15.70;10.28;;;;;;;15.79;36.69;99920.59;1794515;78;21020;-58
2022/02/26 01:42:42;;;;;;;15.03;10.08;;;;;;;15.81;36.58;99921.36;1797129;78;21508;-58
2022/02/26 01:45:14;;;;;;;14.45;10.78;;;;;;;15.66;36.70;99930.56;1790414;79;21482;-59
2022/02/26 01:47:41;;;;;;;14.53;9.90;;;;;;;15.59;36.65;99925.23;1783660;79;21414;-58
2022/02/26 01:50:11;;;;;;;15.58;10.48;;;;;;;15.50;36.65;99933.27;1785866;78;21791;-58
2022/02/26 01:52:38;;;;;;;13.40;10.03;;;;;;;15.49;36.60;99932.03;1786015;79;21494;-58
2022/02/26 01:55:07;;;;;;;13.58;9.23;;;;;;;15.46;36.79;99935.70;1780205;79;21537;-58
2022/02/26 01:57:34;;;;;;;;;;;;;;;15.51;36.86;99934.96;1800959;79;21470;-59
2022/02/26 02:00:00;;;;;;;12.70;8.05;;;;;;;15.60;36.82;99936.71;1790938;78;20118;-58
2022/02/26 02:02:27;;;;;;;16.55;9.60;;;;;;;15.47;36.73;99940.06;1799967;79;21819;-59
2022/02/26 02:04:54;;;;;;;13.05;8.88;;;;;;;15.40;36.82;99946.66;1784267;79;21317;-58
2022/02/26 02:07:20;;;;;;;14.40;9.15;;;;;;;15.41;36.79;99947.50;1778557;79;21435;-58
2022/02/26 02:09:47;;;;;;;14.47;8.00;;;;;;;15.42;36.58;99949.23;1783111;79;21041;-58
2022/02/26 02:12:14;;;;;;;10.45;7.50;;;;;;;15.44;36.72;99955.28;1782645;78;21380;-58
2022/02/26 02:14:45;;;;;;;11.70;7.33;;;;;;;15.54;36.76;99958.65;1785594;79;21859;-58
2022/02/26 02:17:12;;;;;;;13.43;7.53;;;;;;;15.54;36.65;99958.65;1795357;79;21506;-58
2022/02/26 02:19:39;;;;;;;12.43;7.95;;;;;;;15.52;36.58;99964.51;1788407;79;20957;-59
2022/02/26 02:22:07;;;;;;;10.43;7.55;;;;;;;15.53;36.54;99965.36;1788939;78;21465;-58
2022/02/26 02:24:35;;;;;;;12.65;7.17;;;;;;;15.44;36.48;99965.41;1786838;79;21447;-58
2022/02/26 02:27:02;;;;;;;8.40;6.62;;;;;;;15.38;36.47;99974.56;1780104;78;21780;-58
2022/02/26 02:29:29;;;;;;;;;;;;;;;15.33;36.73;99972.67;1794174;79;21558;-58
2022/02/26 02:31:56;;;;;;;6.70;6.00;;;;;;;15.34;36.77;99977.48;1780338;79;20440;-58
2022/02/26 02:34:22;;;;;;;10.95;6.08;;;;;;;15.35;36.63;99973.88;1785479;79;21466;-58
2022/02/26 02:36:49;;;;;;;10.23;5.87;;;;;;;15.24;36.80;99980.27;1774399;79;21522;-58
2022/02/26 02:39:15;;;;;;;7.62;5.60;;;;;;;15.19;36.75;99978.73;1784291;79;21805;-58
2022/02/26 02:41:42;;;;;;;7.80;5.85;;;;;;;15.09;36.80;99979.36;1780600;79;21419;-58
2022/02/26 02:44:13;;;;;;;8.10;5.00;;;;;;;15.10;36.70;99985.87;1774236;79;21518;-58
2022/02/26 02:46:37;;;;;;;6.85;5.45;;;;;;;15.14;36.77;99985.23;1780399;79;21502;-58
2022/02/26 02:49:04;;;;;;;8.90;6.00;;;;;;;15.23;36.78;99987.36;1774810;79;21415;-58
2022/02/26 02:51:31;;;;;;;6.97;5.53;;;;;;;15.19;36.77;99990.65;1775007;79;21832;-58
2022/02/26 02:53:57;;;;;;;9.85;5.55;;;;;;;15.18;36.75;99986.31;1774095;79;21486;-58
2022/02/26 02:56:24;;;;;;;8.65;6.40;;;;;;;15.13;36.71;99994.13;1789278;79;21617;-58
2022/02/26 02:58:51;;;;;;;6.95;6.25;;;;;;;15.07;36.68;99991.36;1786014;79;21557;-58
2022/02/26 03:01:17;;;;;;;6.50;5.07;;;;;;;14.97;36.78;99992.34;1728930;79;21585;-58
2022/02/26 03:03:44;;;;;;;8.08;4.78;;;;;;;14.95;36.87;99996.84;1786819;79;21789;-57
2022/02/26 03:06:11;;;;;;;7.10;5.72;;;;;;;14.96;37.01;99995.08;1779667;79;21529;-58
2022/02/26 03:08:38;;;;;;;7.67;6.28;;;;;;;14.98;36.98;99996.69;1780338;79;21400;-58
2022/02/26 03:11:06;;;;;;;8.75;6.00;;;;;;;14.95;36.96;99994.67;1783565;79;20990;-58
2022/02/26 03:13:34;;;;;;;7.80;5.87;;;;;;;14.85;36.95;100008.05;1773901;79;21518;-57
2022/02/26 03:16:02;;;;;;;7.05;5.53;;;;;;;14.78;36.98;100007.03;1794354;79;21788;-57
2022/02/26 03:18:30;;;;;;;6.08;4.55;;;;;;;14.70;37.08;100009.25;1791775;79;20986;-58
2022/02/26 03:20:57;;;;;;;6.90;4.97;;;;;;;14.70;37.15;100013.70;1782097;79;21498;-58
2022/02/26 03:23:25;;;;;;;7.65;4.97;;;;;;;14.67;37.29;100012.05;1782848;79;21581;-58
2022/02/26 03:25:52;;;;;;;8.48;4.95;;;;;;;14.71;37.18;100017.59;1786976;79;20927;-58
2022/02/26 03:28:18;;;;;;;7.80;5.47;;;;;;;14.66;37.10;100014.81;1779139;79;21832;-59
2022/02/26 03:30:45;;;;;;;10.05;5.37;;;;;;;14.64;37.06;100025.95;1778598;78;21490;-59
2022/02/26 03:33:12;;;;;;;6.72;5.00;;;;;;;14.59;36.98;100016.91;1784182;79;21506;-59
2022/02/26 03:35:39;;;;;;;6.83;5.15;;;;;;;14.54;37.12;100021.11;1787626;79;21495;-58
2022/02/26 03:38:06;;;;;;;9.20;5.60;;;;;;;14.51;37.32;100021.73;1782269;79;21675;-58
2022/02/26 03:40:34;;;;;;;9.40;6.45;;;;;;;14.52;37.28;100026.08;1785237;79;21856;-58
2022/02/26 03:43:01;;;;;;;9.10;6.08;;;;;;;14.46;37.37;100031.70;1782399;79;28710;-58
2022/02/26 03:45:28;;;;;;;8.85;6.67;;;;;;;14.38;37.30;100037.39;1780756;79;22809;-59
2022/02/26 03:47:55;;;;;;;10.78;6.87;;;;;;;14.30;37.34;100047.53;1771756;79;21845;-58
2022/02/26 03:50:23;;;;;;;;;;;;;;;14.25;37.36;100045.11;1789848;79;21537;-58
2022/02/26 03:52:49;;;;;;;10.98;7.85;;;;;;;14.23;37.58;100050.09;1782331;79;22097;-58
2022/02/26 03:55:16;;;;;;;10.98;8.33;;;;;;;14.28;37.50;100054.66;1767781;78;21091;-59
2022/02/26 03:57:57;;;;;;;11.65;8.58;;;;;;;14.23;37.57;100063.33;1757140;79;21492;-58
2022/02/26 04:00:24;;;;;;;16.87;9.18;;;;;;;14.15;37.49;100061.08;1741052;80;21475;-59
2022/02/26 04:02:50;;;;;;;17.90;9.95;;;;;;;14.09;37.42;100067.97;1748848;79;21489;-60
2022/02/26 04:05:17;;;;;;;11.35;8.95;;;;;;;14.01;37.45;100063.95;1752451;79;21463;-60
2022/02/26 04:07:44;;;;;;;13.45;8.80;;;;;;;13.96;37.60;100073.89;1753871;79;21501;-58
2022/02/26 04:10:11;;;;;;;14.98;9.35;;;;;;;13.99;37.70;100073.75;1754903;79;21984;-58
2022/02/26 04:12:39;;;;;;;12.58;8.60;;;;;;;13.96;37.72;100084.47;1750429;79;21521;-58
2022/02/26 04:15:08;;;;;;;13.93;9.20;;;;;;;13.94;37.77;100078.41;1749589;79;21603;-58
2022/02/26 04:17:36;;;;;;;13.68;9.20;;;;;;;13.86;37.61;100087.16;1757054;79;21127;-58
2022/02/26 04:20:04;;;;;;;11.10;8.40;;;;;;;13.79;37.67;100093.23;1755133;80;21529;-57
2022/02/26 04:22:31;;;;;;;14.28;8.80;;;;;;;13.75;37.84;100096.95;1750224;80;21496;-58
2022/02/26 04:24:58;;;;;;;11.00;7.50;;;;;;;13.75;37.92;100100.05;1755030;80;21513;-58
2022/02/26 04:27:24;;;;;;;12.68;8.15;;;;;;;13.78;37.90;100110.00;1753417;79;21442;-58
2022/02/26 04:29:51;;;;;;;12.55;8.35;;;;;;;13.70;37.96;100113.97;1754090;79;21716;-58
2022/02/26 04:32:17;;;;;;;12.03;7.60;;;;;;;13.61;37.94;100118.74;1751988;80;21517;-58
2022/02/26 04:34:44;;;;;;;11.65;7.45;;;;;;;13.59;37.86;100123.72;1738698;80;21494;-58
2022/02/26 04:37:11;;;;;;;10.50;7.00;;;;;;;13.56;37.97;100127.38;1747605;80;21081;-58
2022/02/26 04:39:38;;;;;;;10.63;7.17;;;;;;;13.57;38.09;100130.39;1746580;80;21663;-58
2022/02/26 04:42:07;;;;;;;9.80;7.12;;;;;;;13.62;38.15;100142.92;1759881;79;21045;-59
2022/02/26 04:44:33;;;;;;;11.75;8.18;;;;;;;13.58;38.26;100147.97;1747914;80;21426;-58
2022/02/26 04:47:00;;;;;;;14.23;8.38;;;;;;;13.56;38.16;100149.83;1751069;80;20973;-57
2022/02/26 04:49:27;;;;;;;11.75;8.40;;;;;;;13.49;38.06;100155.00;1749728;80;21493;-57
2022/02/26 04:51:54;;;;;;;11.28;7.67;;;;;;;13.47;38.21;100155.55;1739941;81;21591;-59
2022/02/26 04:54:21;;;;;;;10.80;7.70;;;;;;;13.50;38.53;100169.06;1752648;79;22028;-58
2022/02/26 04:56:47;;;;;;;12.85;8.20;;;;;;;13.53;38.40;100164.50;1743982;80;21067;-57
2022/02/26 04:59:14;;;;;;;13.53;9.50;;;;;;;13.44;38.47;100174.16;1733498;80;21584;-58
2022/02/26 05:01:41;;;;;;;17.10;9.73;;;;;;;13.36;38.47;100177.16;1743577;80;21159;-58
2022/02/26 05:04:07;;;;;;;14.35;9.65;;;;;;;13.27;38.69;100174.91;1747242;80;21479;-58
2022/02/26 05:06:34;;;;;;;15.03;9.03;;;;;;;13.27;38.99;100180.66;1731116;81;21765;-58
2022/02/26 05:09:01;;;;;;;15.87;9.63;;;;;;;13.39;39.23;100190.67;1732329;81;21520;-57
2022/02/26 05:11:28;;;;;;;16.82;10.68;;;;;;;13.39;39.23;100190.67;1743294;81;21977;-57
2022/02/26 05:13:55;;;;;;;20.43;11.37;;;;;;;13.37;38.93;100196.50;1739363;80;21119;-58
2022/02/26 05:16:23;;;;;;;17.62;9.75;;;;;;;13.27;39.06;100202.63;1736984;79;21527;-58
2022/02/26 05:18:49;;;;;;;14.18;8.20;;;;;;;13.25;39.17;100200.52;1733488;80;22135;-59
2022/02/26 05:21:17;;;;;;;15.30;9.15;;;;;;;13.25;39.43;100200.05;1741328;81;21017;-57
2022/02/26 05:23:43;;;;;;;13.28;9.73;;;;;;;13.35;39.41;100200.52;1742397;80;21555;-57
2022/02/26 05:26:13;;;;;;;15.15;9.85;;;;;;;13.35;39.44;100197.88;1742487;80;21584;-58
2022/02/26 05:28:40;;;;;;;15.30;9.25;;;;;;;13.35;39.43;100210.23;1743118;80;21545;-58
2022/02/26 05:31:07;;;;;;;14.83;8.60;;;;;;;13.33;39.29;100210.77;1743404;80;21501;-58
2022/02/26 05:33:34;;;;;;;13.30;8.70;;;;;;;13.35;39.40;100216.84;1742113;80;22070;-57
2022/02/26 05:36:01;;;;;;;14.55;9.45;;;;;;;13.44;39.39;100221.71;1738758;80;21531;-56
2022/02/26 05:38:28;;;;;;;17.23;10.58;;;;;;;13.44;39.43;100214.63;1739786;81;21545;-57
2022/02/26 05:41:08;;;;;;;17.60;11.05;;;;;;;13.43;39.53;100220.86;1689934;82;21446;-57
2022/02/26 05:43:35;;;;;;;15.70;10.80;;;;;;;13.39;39.50;100224.58;1687344;83;21786;-57
2022/02/26 05:46:03;;;;;;;15.70;10.85;;;;;;;13.34;39.89;100229.20;1681729;83;21462;-58
2022/02/26 05:48:30;;;;;;;;;;;;;;;13.49;39.83;100226.33;1684664;82;21568;-57
2022/02/26 05:50:56;;;;;;;15.93;10.82;;;;;;;13.70;39.66;100237.69;1687664;83;20516;-59
2022/02/26 05:53:23;;;;;;;14.00;10.43;;;;;;;13.71;39.51;100235.45;1692599;82;21529;-57
2022/02/26 05:55:50;;;;;;;14.40;9.75;;;;;;;13.73;39.50;100238.00;1686861;82;21509;-57
2022/02/26 05:58:17;;;;;;;14.85;10.18;;;;;;;13.71;39.51;100242.50;1686807;83;21123;-57
2022/02/26 06:00:44;;;;;;;13.95;9.70;;;;;;;13.79;39.51;100242.55;1674035;84;21469;-58
2022/02/26 06:03:12;;;;;;;11.20;9.18;;;;;;;13.92;39.53;100244.16;1642709;85;21533;-58
2022/02/26 06:05:39;;;;;;;14.45;9.75;;;;;;;14.05;39.36;100245.73;1654653;85;21573;-58
2022/02/26 06:08:06;;;;;;;15.87;11.27;;;;;;;14.08;39.32;100247.39;1656661;84;22121;-59
2022/02/26 06:10:34;;;;;;;11.05;9.65;;;;;;;14.10;39.25;100251.67;1705709;82;21554;-58
2022/02/26 06:13:01;;;;;;;12.78;9.08;;;;;;;14.13;39.25;100258.62;1694950;82;21878;-58
2022/02/26 06:15:28;;;;;;;9.45;7.67;;;;;;;14.17;39.52;100258.39;1681033;82;21564;-58
2022/02/26 06:17:55;;;;;;;8.88;7.95;;;;;;;14.30;39.42;100263.95;1698737;83;21503;-58
2022/02/26 06:20:22;;;;;;;11.03;9.08;;;;;;;14.37;39.37;100264.05;1691698;82;21836;-58
2022/02/26 06:22:49;;;;;;;11.12;7.83;;;;;;;14.48;39.23;100267.47;1698834;83;21623;-58
2022/02/26 06:25:19;;;;;;;10.43;8.53;;;;;;;14.46;39.21;100275.10;1684654;83;21613;-58
2022/02/26 06:27:46;;;;;;;15.45;9.70;;;;;;;14.52;39.11;100275.67;1691819;82;21676;-59
2022/02/26 06:30:14;;;;;;;12.50;8.97;;;;;;;14.62;39.12;100281.84;1670085;84;21569;-58
2022/02/26 06:32:40;;;;;;;15.20;9.80;;;;;;;14.74;39.07;100279.44;1641601;84;21773;-58
2022/02/26 06:35:09;;;;;;;12.18;9.45;;;;;;;14.84;38.94;100279.83;1637146;84;21509;-59
2022/02/26 06:37:36;;;;;;;14.00;9.88;;;;;;;14.96;38.80;100286.33;1656739;84;21484;-59
2022/02/26 06:40:04;;;;;;;15.48;9.58;;;;;;;14.94;38.69;100293.48;1661781;84;21567;-59
2022/02/26 06:42:31;;;;;;;14.58;10.38;;;;;;;14.93;38.72;100293.09;1645857;85;21559;-60
2022/02/26 06:44:58;;;;;;;16.37;9.80;;;;;;;15.06;38.63;100307.41;1668719;84;21745;-60
2022/02/26 06:50:19;;;;;;;14.85;9.78;;;;;;;12.61;45.56;100317.63;1788898;78;22605;-60
2022/02/26 06:52:46;;;;;;;12.28;9.65;;;;;;;15.08;39.16;100309.52;1769205;80;21436;-59
2022/02/26 06:55:13;;;;;;;15.80;11.40;;;;;;;15.23;38.66;100313.17;1768220;78;22111;-60
2022/02/26 06:57:40;;;;;;;19.43;11.43;;;;;;;15.27;38.42;100319.17;1762330;80;21423;-60
2022/02/26 07:00:08;;;;;;;14.23;10.60;;;;;;;15.49;38.36;100315.80;1764540;78;21040;-61
2022/02/26 07:02:35;;;;;;;19.60;11.20;;;;;;;15.69;38.06;100314.75;1762600;78;21077;-59
2022/02/26 07:05:01;;;;;;;14.85;10.68;;;;;;;15.84;37.81;100317.09;1758411;78;21407;-60
2022/02/26 07:07:29;;;;;;;14.03;11.10;;;;;;;15.89;37.51;100320.32;1766934;80;21810;-60
2022/02/26 07:09:55;;;;;;;12.93;10.13;;;;;;;16.08;37.38;100327.28;1768442;79;21565;-60
2022/02/26 07:12:22;;;;;;;14.25;10.60;;;;;;;16.15;36.97;100328.19;1765722;78;21566;-59
2022/02/26 07:14:49;;;;;;;14.90;9.68;;;;;;;16.18;36.86;100331.61;1766863;78;21601;-59
2022/02/26 07:17:16;;;;;;;13.65;9.73;;;;;;;16.30;36.70;100340.23;1768900;78;21002;-60
2022/02/26 07:19:43;;;;;;;13.93;10.05;;;;;;;16.50;36.69;100343.07;1763171;78;26896;-59
2022/02/26 07:22:11;;;;;;;13.83;9.53;;;;;;;16.71;36.58;100343.20;1761397;78;22735;-58
2022/02/26 07:24:38;;;;;;;13.10;9.40;;;;;;;17.04;36.87;100352.84;1765803;78;21494;-59
2022/02/26 07:27:05;;;;;;;13.30;8.08;;;;;;;17.35;36.78;100351.05;1729971;82;21507;-60
2022/02/26 07:29:32;;;;;;;15.55;11.38;;;;;;;17.59;36.32;100354.00;1731942;81;21065;-59
2022/02/26 07:31:59;;;;;;;14.80;10.85;;;;;;;17.82;36.13;100353.95;1701610;83;21811;-59
2022/02/26 07:34:25;;;;;;;12.25;9.88;;;;;;;18.04;35.91;100357.95;1735809;81;21601;-59
2022/02/26 07:36:52;;;;;;;12.45;9.23;;;;;;;18.22;34.86;100358.61;1708285;83;21001;-58
2022/02/26 07:39:19;;;;;;;13.95;8.50;;;;;;;18.54;33.63;100355.22;1696415;83;21477;-58
2022/02/26 07:41:45;;;;;;;10.55;8.38;;;;;;;19.05;32.95;100357.25;1713400;81;21453;-59
2022/02/26 07:44:13;;;;;;;9.75;8.43;;;;;;;19.58;31.63;100358.06;1736192;81;22112;-58
2022/02/26 07:46:40;;;;;;;11.88;7.70;;;;;;;19.73;30.61;100358.00;1731436;81;21423;-59
2022/02/26 07:49:06;;;;;;;9.93;7.12;;;;;;;20.18;30.39;100359.23;1701352;83;20975;-59
2022/02/26 07:51:33;;;;;;;7.28;5.53;;;;;;;20.17;29.72;100359.33;1708347;82;21520;-58
2022/02/26 07:54:00;;;;;;;8.35;5.08;;;;;;;20.10;29.53;100361.61;1739837;80;21539;-59
2022/02/26 07:56:27;;;;;;;8.45;5.20;;;;;;;19.84;28.91;100375.45;1750613;80;21586;-55
2022/02/26 07:58:54;;;;;;;8.60;4.70;;;;;;;19.45;28.61;100370.05;1761977;80;21562;-56
2022/02/26 08:01:21;;;;;;;5.40;4.30;;;;;;;19.75;28.77;100378.27;1745224;80;21541;-57
2022/02/26 08:03:48;;;;;;;7.67;5.03;;;;;;;20.07;28.80;100379.65;1691513;83;21416;-58
2022/02/26 08:06:15;;;;;;;;;;;;;;;20.26;28.30;100372.03;1760833;80;21660;-57
2022/02/26 08:08:42;;;;;;;5.50;3.77;;;;;;;20.51;28.54;100376.92;1758518;80;22129;-57
2022/02/26 08:11:08;;;;;;;5.12;2.90;;;;;;;20.74;27.90;100373.47;1738780;80;21435;-58
2022/02/26 08:13:35;;;;;;;8.30;3.35;;;;;;;20.84;26.58;100369.63;1737019;80;21523;-61
2022/02/26 08:16:03;;;;;;;5.40;2.83;;;;;;;20.98;26.98;100373.47;1739246;80;21021;-60
2022/02/26 08:18:29;;;;;;;5.30;2.90;;;;;;;21.13;27.33;100374.11;1755946;80;21699;-60
2022/02/26 08:20:57;;;;;;;5.67;3.12;;;;;;;21.42;27.11;100373.73;1755871;80;22092;-60
2022/02/26 08:23:23;;;;;;;4.62;2.62;;;;;;;21.62;26.62;100377.56;1750779;80;21146;-58
2022/02/26 08:25:50;;;;;;;4.00;1.85;;;;;;;21.70;26.24;100372.95;1744115;80;21412;-57
2022/02/26 08:28:17;;;;;;;2.57;1.90;;;;;;;21.77;26.00;100368.83;1755549;80;21073;-57
2022/02/26 08:30:45;;;;;;;5.05;1.92;;;;;;;21.61;25.54;100367.85;1751184;80;21432;-58
2022/02/26 08:33:12;;;;;;;3.27;1.82;;;;;;;21.37;25.16;100373.23;1685923;83;21873;-59
2022/02/26 08:35:39;;;;;;;3.60;2.10;;;;;;;21.37;25.14;100374.57;1748064;80;21422;-59
2022/02/26 08:38:06;;;;;;;3.47;1.70;;;;;;;21.53;25.03;100378.27;1745269;80;21514;-59
2022/02/26 08:40:32;;;;;;;3.58;1.92;;;;;;;21.54;25.02;100379.50;1747744;80;22682;-59
2022/02/26 08:42:59;;;;;;;5.53;1.90;;;;;;;21.45;24.28;100378.02;1747780;80;21393;-58
2022/02/26 08:45:26;;;;;;;3.17;1.70;;;;;;;21.47;24.65;100385.44;1754912;80;21550;-58
2022/02/26 08:47:53;;;;;;;2.47;2.00;;;;;;;21.41;24.17;100384.55;1737430;80;21065;-58
2022/02/26 08:50:22;;;;;;;3.92;2.05;;;;;;;21.32;24.27;100388.30;1752718;80;21699;-58
2022/02/26 08:52:49;;;;;;;2.00;1.27;;;;;;;21.43;24.23;100382.61;1758089;79;21604;-57
2022/02/26 08:55:16;;;;;;;2.62;1.50;;;;;;;21.58;24.06;100380.12;1751455;80;21436;-59
2022/02/26 08:57:42;;;;;;;3.08;1.70;;;;;;;21.74;24.14;100391.34;1753181;79;22124;-57
2022/02/26 09:00:11;;;;;;;4.12;1.35;;;;;;;21.88;23.54;100384.06;1755509;80;21487;-58
2022/02/26 09:02:37;;;;;;;;;;;;;;;21.75;22.87;100389.52;1771255;80;21035;-58
2022/02/26 09:05:05;;;;;;;2.95;1.50;;;;;;;21.84;23.25;100382.60;1760470;80;20366;-60
2022/02/26 09:07:31;;;;;;;2.12;1.55;;;;;;;21.92;22.59;100383.69;1766733;80;21522;-57
2022/02/26 09:09:58;;;;;;;3.17;1.50;;;;;;;21.83;22.82;100385.77;1753511;80;22100;-59
2022/02/26 09:12:25;;;;;;;4.58;1.67;;;;;;;21.84;22.65;100387.95;1692988;83;21601;-58
2022/02/26 09:14:53;;;;;;;2.75;1.20;;;;;;;21.71;22.45;100390.23;1700815;83;21506;-58
2022/02/26 09:17:19;;;;;;;;;;;;;;;21.65;22.42;100394.73;1689036;83;21432;-58
2022/02/26 09:19:46;;;;;;;3.35;1.67;;;;;;;21.52;22.06;100393.48;1702130;83;20443;-58
2022/02/26 09:22:12;;;;;;;2.98;1.50;;;;;;;21.55;22.44;100393.75;1701347;83;22143;-58
2022/02/26 09:24:39;;;;;;;4.53;1.50;;;;;;;21.57;22.24;100389.98;1693460;83;21525;-58
2022/02/26 09:27:06;;;;;;;2.60;1.20;;;;;;;21.85;22.50;100398.55;1719525;81;21001;-59
2022/02/26 09:29:33;;;;;;;2.60;1.75;;;;;;;21.96;21.92;100393.20;1729885;82;21517;-59
2022/02/26 09:31:59;;;;;;;2.87;1.55;;;;;;;21.99;21.66;100402.81;1729413;81;21625;-58
2022/02/26 09:34:26;;;;;;;3.80;1.65;;;;;;;21.78;21.24;100398.16;1728761;82;21792;-59
2022/02/26 09:36:53;;;;;;;4.00;1.42;;;;;;;22.03;21.27;100402.93;1717606;82;21565;-58
2022/02/26 09:39:20;;;;;;;3.95;1.60;;;;;;;22.43;20.88;100401.11;1725456;82;21470;-59
2022/02/26 09:41:47;;;;;;;2.37;1.15;;;;;;;22.84;20.54;100399.58;1725569;82;21506;-59
2022/02/26 09:44:15;;;;;;;2.37;1.10;;;;;;;23.29;19.91;100401.27;1720548;82;21546;-58
2022/02/26 09:46:43;;;;;;;1.92;1.15;;;;;;;23.21;19.81;100398.40;1748501;80;21570;-58
2022/02/26 09:49:10;;;;;;;2.17;1.25;;;;;;;23.21;19.58;100403.27;1756921;80;21721;-58
2022/02/26 09:51:41;;;;;;;3.87;1.55;;;;;;;23.70;19.53;100400.93;1752295;80;21514;-58
2022/02/26 09:54:08;;;;;;;1.77;1.10;;;;;;;24.02;19.43;100402.19;1751913;80;22125;-59
2022/02/26 09:56:37;;;;;;;2.90;1.45;;;;;;;24.05;19.20;100405.97;1762900;80;21510;-58
2022/02/26 09:59:04;;;;;;;1.67;0.90;;;;;;;24.56;18.64;100410.05;1741855;80;22113;-58
2022/02/26 10:01:32;;;;;;;;;;;;;;;24.82;18.41;100414.42;1754743;80;21582;-59
2022/02/26 10:04:12;;;;;;;5.13;1.43;;;;;;;24.60;18.33;100414.16;1762013;80;20128;-59
2022/02/26 10:06:38;;;;;;;4.67;1.37;;;;;;;23.95;18.96;100409.08;1755248;80;20982;-58
2022/02/26 10:09:11;;;;;;;3.10;1.20;;;;;;;23.67;19.69;100417.29;1758502;80;21518;-56
2022/02/26 10:11:38;;;;;;;1.85;1.20;;;;;;;23.43;19.62;100424.25;1704101;80;21824;-58
2022/02/26 10:14:09;;;;;;;2.97;1.73;;;;;;;23.14;19.92;100432.91;1750528;80;21534;-57
2022/02/26 10:16:47;;;;;;;2.95;1.60;;;;;;;22.95;20.01;100428.19;1752650;80;21443;-57
2022/02/26 10:19:25;;;;;;;2.15;1.30;;;;;;;22.96;19.84;100429.87;1759265;80;28638;-58
2022/02/26 10:21:56;;;;;;;2.10;1.02;;;;;;;22.84;19.95;100434.92;1759054;80;20978;-59
2022/02/26 10:24:23;;;;;;;4.50;1.50;;;;;;;22.70;19.75;100435.56;1752832;80;21581;-60
2022/02/26 10:26:56;;;;;;;2.52;1.22;;;;;;;22.67;19.77;100449.20;1757702;80;21001;-59
2022/02/26 10:29:23;;;;;;;2.02;1.20;;;;;;;22.73;19.62;100442.48;1753102;80;21429;-57
2022/02/26 10:31:53;;;;;;;1.52;0.80;;;;;;;23.66;19.14;100439.77;1769206;80;21479;-59
2022/02/26 10:34:44;;;;;;;2.65;1.00;;;;;;;24.20;18.41;100442.69;1758297;80;20950;-60
2022/02/26 10:37:17;;;;;;;1.00;0.90;;;;;;;24.04;18.20;100451.25;1759380;80;22090;-59
2022/02/26 10:39:51;;;;;;;1.70;1.00;;;;;;;23.80;18.49;100445.31;1755865;80;21573;-59
2022/02/26 10:42:29;;;;;;;1.82;1.30;;;;;;;23.49;18.57;100454.11;1763330;79;21580;-58
2022/02/26 10:45:14;;;;;;;2.45;1.40;;;;;;;23.32;18.86;100460.05;1760108;80;21652;-59
2022/02/26 10:47:45;;;;;;;2.15;1.22;;;;;;;23.42;18.97;100449.39;1751513;80;21520;-59
2022/02/26 10:50:21;;;;;;;2.15;1.32;;;;;;;23.26;19.14;100448.00;1749116;80;21601;-60
2022/02/26 10:52:57;;;;;;;2.42;1.20;;;;;;;23.51;19.18;100444.59;1766911;80;21569;-59
2022/02/26 10:55:44;;;;;;;2.12;1.25;;;;;;;23.63;18.86;100451.59;1751942;80;21446;-59
2022/02/26 10:58:20;;;;;;;1.10;0.80;;;;;;;23.62;18.80;100440.98;1764820;79;21104;-59
2022/02/26 11:00:47;;;;;;;1.22;0.90;;;;;;;23.71;18.49;100439.73;1757636;80;21700;-59
2022/02/26 11:03:16;;;;;;;2.10;0.95;;;;;;;23.69;18.00;100440.32;1758467;80;27004;-59
2022/02/26 11:05:43;;;;;;;1.47;1.07;;;;;;;23.70;17.81;100445.22;1760894;80;21443;-58
2022/02/26 11:08:12;;;;;;;2.05;0.95;;;;;;;23.62;18.03;100435.14;1760899;80;21522;-60
2022/02/26 11:10:40;;;;;;;1.90;1.10;;;;;;;23.79;18.23;100444.94;1763792;80;21553;-60
2022/02/26 11:13:06;;;;;;;1.05;0.62;;;;;;;23.80;18.16;100443.97;1759173;79;21428;-60
2022/02/26 11:15:33;;;;;;;2.47;0.90;;;;;;;23.96;18.47;100448.86;1759886;79;22027;-61
2022/02/26 11:18:00;;;;;;;2.40;1.22;;;;;;;24.22;18.48;100449.28;1759006;80;21483;-60
2022/02/26 11:20:27;;;;;;;1.25;1.00;;;;;;;24.32;17.81;100447.51;1758269;79;21566;-60
2022/02/26 11:22:56;;;;;;;1.67;1.12;;;;;;;24.55;18.19;100440.63;1746156;80;22002;-60
2022/02/26 11:25:26;;;;;;;0.78;0.70;;;;;;;24.57;17.81;100452.09;1759375;80;21529;-60
2022/02/26 11:27:54;;;;;;;3.15;0.90;;;;;;;24.47;17.43;100451.52;1758573;80;21820;-60
2022/02/26 11:30:26;;;;;;;1.87;1.00;;;;;;;24.74;18.19;100450.58;1760193;80;21632;-61